sensor_id;sensor_type;location;lat;lon;timestamp;P1;P2;P0
80555;PMS5003;69889;55.040;73.076;2024-03-25T00:00:50;26.00;23.00;15.00
80555;PMS5003;69889;55.040;73.076;2024-03-25T00:03:16;26.00;21.75;14.00
80555;PMS5003;69889;55.040;73.076;2024-03-25T00:05:43;24.25;20.75;14.00
80555;PMS5003;69889;55.040;73.076;2024-03-25T00:08:09;24.25;21.00;14.00
80555;PMS5003;69889;55.040;73.076;2024-03-25T00:10:35;27.75;23.75;15.00
80555;PMS5003;69889;55.040;73.076;2024-03-25T00:13:03;26.00;22.00;14.00
80555;PMS5003;69889;55.040;73.076;2024-03-25T00:15:30;25.00;21.00;14.00
80555;PMS5003;69889;55.040;73.076;2024-03-25T00:17:56;27.00;23.00;16.00
80555;PMS5003;69889;55.040;73.076;2024-03-25T00:20:22;26.00;23.00;14.00
80555;PMS5003;69889;55.040;73.076;2024-03-25T00:22:50;25.00;22.00;15.00
80555;PMS5003;69889;55.040;73.076;2024-03-25T00:25:16;27.00;24.00;16.00
80555;PMS5003;69889;55.040;73.076;2024-03-25T00:27:43;25.00;22.00;14.00
80555;PMS5003;69889;55.040;73.076;2024-03-25T00:30:09;24.00;21.00;15.00
80555;PMS5003;69889;55.040;73.076;2024-03-25T00:32:36;24.00;21.00;14.00
80555;PMS5003;69889;55.040;73.076;2024-03-25T00:35:02;26.50;22.75;14.00
80555;PMS5003;69889;55.040;73.076;2024-03-25T00:37:30;23.25;21.50;14.75
80555;PMS5003;69889;55.040;73.076;2024-03-25T00:39:56;30.25;25.25;16.00
80555;PMS5003;69889;55.040;73.076;2024-03-25T00:42:23;32.00;27.00;17.00
80555;PMS5003;69889;55.040;73.076;2024-03-25T00:44:50;27.25;23.00;15.00
80555;PMS5003;69889;55.040;73.076;2024-03-25T00:47:16;25.75;23.00;15.00
80555;PMS5003;69889;55.040;73.076;2024-03-25T00:49:43;27.25;23.00;16.00
80555;PMS5003;69889;55.040;73.076;2024-03-25T00:52:09;30.75;25.00;16.75
80555;PMS5003;69889;55.040;73.076;2024-03-25T00:54:35;30.00;25.75;16.00
80555;PMS5003;69889;55.040;73.076;2024-03-25T00:57:02;27.50;24.00;16.00
80555;PMS5003;69889;55.040;73.076;2024-03-25T00:59:29;28.50;25.00;17.00
80555;PMS5003;69889;55.040;73.076;2024-03-25T01:01:55;29.00;24.00;16.00
80555;PMS5003;69889;55.040;73.076;2024-03-25T01:04:22;30.00;25.25;17.00
80555;PMS5003;69889;55.040;73.076;2024-03-25T01:06:49;28.50;23.75;16.00
80555;PMS5003;69889;55.040;73.076;2024-03-25T01:09:15;31.00;26.00;16.50
80555;PMS5003;69889;55.040;73.076;2024-03-25T01:11:42;28.50;24.00;17.50
80555;PMS5003;69889;55.040;73.076;2024-03-25T01:14:08;30.00;25.00;17.00
80555;PMS5003;69889;55.040;73.076;2024-03-25T01:16:35;31.00;26.00;18.00
80555;PMS5003;69889;55.040;73.076;2024-03-25T01:19:01;31.00;26.00;17.00
80555;PMS5003;69889;55.040;73.076;2024-03-25T01:21:28;31.50;26.00;18.50
80555;PMS5003;69889;55.040;73.076;2024-03-25T01:23:55;34.25;28.25;18.00
80555;PMS5003;69889;55.040;73.076;2024-03-25T01:26:21;33.50;28.50;19.00
80555;PMS5003;69889;55.040;73.076;2024-03-25T01:28:48;31.00;26.00;18.00
80555;PMS5003;69889;55.040;73.076;2024-03-25T01:31:14;32.25;26.25;18.00
80555;PMS5003;69889;55.040;73.076;2024-03-25T01:33:41;34.00;28.00;18.00
80555;PMS5003;69889;55.040;73.076;2024-03-25T01:36:08;31.25;26.25;18.00
80555;PMS5003;69889;55.040;73.076;2024-03-25T01:38:37;31.00;26.00;17.00
80555;PMS5003;69889;55.040;73.076;2024-03-25T01:41:07;30.25;25.50;18.00
80555;PMS5003;69889;55.040;73.076;2024-03-25T01:43:34;33.00;26.75;18.00
80555;PMS5003;69889;55.040;73.076;2024-03-25T01:46:01;32.00;27.00;18.00
80555;PMS5003;69889;55.040;73.076;2024-03-25T01:48:27;31.50;26.50;18.00
80555;PMS5003;69889;55.040;73.076;2024-03-25T01:50:54;30.25;25.75;17.75
80555;PMS5003;69889;55.040;73.076;2024-03-25T01:53:21;31.00;25.75;17.00
80555;PMS5003;69889;55.040;73.076;2024-03-25T01:55:49;32.00;26.75;17.00
80555;PMS5003;69889;55.040;73.076;2024-03-25T01:58:15;30.00;25.00;18.00
80555;PMS5003;69889;55.040;73.076;2024-03-25T02:00:42;30.00;27.00;18.50
80555;PMS5003;69889;55.040;73.076;2024-03-25T02:03:09;33.25;27.00;17.00
80555;PMS5003;69889;55.040;73.076;2024-03-25T02:05:35;33.00;26.75;17.25
80555;PMS5003;69889;55.040;73.076;2024-03-25T02:08:03;32.75;27.25;19.00
80555;PMS5003;69889;55.040;73.076;2024-03-25T02:10:30;32.00;27.00;18.00
80555;PMS5003;69889;55.040;73.076;2024-03-25T02:12:57;33.00;27.00;18.00
80555;PMS5003;69889;55.040;73.076;2024-03-25T02:15:24;33.00;28.00;18.00
80555;PMS5003;69889;55.040;73.076;2024-03-25T02:17:52;30.00;26.00;18.00
80555;PMS5003;69889;55.040;73.076;2024-03-25T02:20:19;32.00;27.00;18.00
80555;PMS5003;69889;55.040;73.076;2024-03-25T02:22:46;32.75;26.50;18.00
80555;PMS5003;69889;55.040;73.076;2024-03-25T02:25:12;33.00;27.00;18.00
80555;PMS5003;69889;55.040;73.076;2024-03-25T02:27:40;31.25;27.00;19.00
80555;PMS5003;69889;55.040;73.076;2024-03-25T02:30:07;32.00;27.00;18.00
80555;PMS5003;69889;55.040;73.076;2024-03-25T02:32:34;33.75;27.75;17.75
80555;PMS5003;69889;55.040;73.076;2024-03-25T02:35:02;31.00;26.00;17.00
80555;PMS5003;69889;55.040;73.076;2024-03-25T02:37:29;34.00;28.25;19.00
80555;PMS5003;69889;55.040;73.076;2024-03-25T02:39:57;33.00;27.00;17.25
80555;PMS5003;69889;55.040;73.076;2024-03-25T02:42:30;31.75;27.00;19.00
80555;PMS5003;69889;55.040;73.076;2024-03-25T02:45:00;30.50;26.50;17.75
80555;PMS5003;69889;55.040;73.076;2024-03-25T02:47:27;32.00;27.00;19.00
80555;PMS5003;69889;55.040;73.076;2024-03-25T02:49:55;29.25;25.00;17.00
80555;PMS5003;69889;55.040;73.076;2024-03-25T02:52:22;32.00;27.00;17.25
80555;PMS5003;69889;55.040;73.076;2024-03-25T02:54:49;31.00;25.75;16.00
80555;PMS5003;69889;55.040;73.076;2024-03-25T02:57:15;30.00;26.00;16.25
80555;PMS5003;69889;55.040;73.076;2024-03-25T02:59:42;28.00;22.50;16.00
80555;PMS5003;69889;55.040;73.076;2024-03-25T03:02:08;33.00;27.00;18.00
80555;PMS5003;69889;55.040;73.076;2024-03-25T03:04:34;33.00;27.00;17.75
80555;PMS5003;69889;55.040;73.076;2024-03-25T03:07:01;34.00;28.00;19.00
80555;PMS5003;69889;55.040;73.076;2024-03-25T03:09:27;35.25;28.00;18.00
80555;PMS5003;69889;55.040;73.076;2024-03-25T03:11:54;33.00;28.00;20.00
80555;PMS5003;69889;55.040;73.076;2024-03-25T03:14:20;35.00;28.25;17.00
80555;PMS5003;69889;55.040;73.076;2024-03-25T03:16:47;33.00;28.00;18.00
80555;PMS5003;69889;55.040;73.076;2024-03-25T03:19:13;32.00;27.00;19.00
80555;PMS5003;69889;55.040;73.076;2024-03-25T03:21:40;35.00;29.00;19.00
80555;PMS5003;69889;55.040;73.076;2024-03-25T03:24:06;30.25;25.50;17.50
80555;PMS5003;69889;55.040;73.076;2024-03-25T03:26:34;34.00;27.00;18.00
80555;PMS5003;69889;55.040;73.076;2024-03-25T03:29:00;31.00;25.25;16.75
80555;PMS5003;69889;55.040;73.076;2024-03-25T03:31:26;31.75;25.00;17.00
80555;PMS5003;69889;55.040;73.076;2024-03-25T03:33:53;29.00;25.00;17.00
80555;PMS5003;69889;55.040;73.076;2024-03-25T03:36:21;32.00;27.00;18.00
80555;PMS5003;69889;55.040;73.076;2024-03-25T03:38:51;34.00;27.50;18.00
80555;PMS5003;69889;55.040;73.076;2024-03-25T03:41:18;30.00;25.25;16.25
80555;PMS5003;69889;55.040;73.076;2024-03-25T03:43:44;29.50;24.75;16.00
80555;PMS5003;69889;55.040;73.076;2024-03-25T03:46:11;30.00;25.50;17.00
80555;PMS5003;69889;55.040;73.076;2024-03-25T03:48:38;29.25;25.00;18.00
80555;PMS5003;69889;55.040;73.076;2024-03-25T03:51:05;33.00;26.00;17.00
80555;PMS5003;69889;55.040;73.076;2024-03-25T03:53:31;32.50;27.00;18.00
80555;PMS5003;69889;55.040;73.076;2024-03-25T03:55:58;29.00;24.00;17.00
80555;PMS5003;69889;55.040;73.076;2024-03-25T03:58:25;32.00;27.00;18.50
80555;PMS5003;69889;55.040;73.076;2024-03-25T04:00:52;29.50;25.50;17.00
80555;PMS5003;69889;55.040;73.076;2024-03-25T04:03:21;23.50;20.50;15.25
80555;PMS5003;69889;55.040;73.076;2024-03-25T04:05:47;30.00;26.00;17.50
80555;PMS5003;69889;55.040;73.076;2024-03-25T04:08:14;29.75;25.00;16.00
80555;PMS5003;69889;55.040;73.076;2024-03-25T04:10:40;26.25;22.75;15.75
80555;PMS5003;69889;55.040;73.076;2024-03-25T04:13:07;31.00;25.00;15.50
80555;PMS5003;69889;55.040;73.076;2024-03-25T04:15:35;27.50;23.00;15.00
80555;PMS5003;69889;55.040;73.076;2024-03-25T04:18:01;29.25;25.00;17.00
80555;PMS5003;69889;55.040;73.076;2024-03-25T04:20:28;24.00;21.00;15.00
80555;PMS5003;69889;55.040;73.076;2024-03-25T04:22:55;27.00;23.00;15.00
80555;PMS5003;69889;55.040;73.076;2024-03-25T04:25:21;30.25;25.50;18.00
80555;PMS5003;69889;55.040;73.076;2024-03-25T04:27:48;29.00;24.75;17.00
80555;PMS5003;69889;55.040;73.076;2024-03-25T04:30:14;27.00;24.00;15.00
80555;PMS5003;69889;55.040;73.076;2024-03-25T04:32:41;27.00;24.00;15.75
80555;PMS5003;69889;55.040;73.076;2024-03-25T04:35:07;31.00;25.00;17.00
80555;PMS5003;69889;55.040;73.076;2024-03-25T04:37:34;29.00;25.00;17.00
80555;PMS5003;69889;55.040;73.076;2024-03-25T04:40:01;30.00;25.00;16.00
80555;PMS5003;69889;55.040;73.076;2024-03-25T04:42:28;27.25;23.00;15.00
80555;PMS5003;69889;55.040;73.076;2024-03-25T04:44:54;30.00;25.00;16.00
80555;PMS5003;69889;55.040;73.076;2024-03-25T04:47:21;28.00;24.25;16.00
80555;PMS5003;69889;55.040;73.076;2024-03-25T04:49:47;29.00;23.25;16.00
80555;PMS5003;69889;55.040;73.076;2024-03-25T04:52:14;30.00;25.00;16.25
80555;PMS5003;69889;55.040;73.076;2024-03-25T04:54:43;30.00;24.00;16.00
80555;PMS5003;69889;55.040;73.076;2024-03-25T04:57:09;28.00;24.00;16.00
80555;PMS5003;69889;55.040;73.076;2024-03-25T04:59:36;27.00;21.50;14.25
80555;PMS5003;69889;55.040;73.076;2024-03-25T05:02:02;29.00;24.00;16.00
80555;PMS5003;69889;55.040;73.076;2024-03-25T05:04:28;29.00;24.00;16.00
80555;PMS5003;69889;55.040;73.076;2024-03-25T05:06:55;31.00;25.00;15.00
80555;PMS5003;69889;55.040;73.076;2024-03-25T05:09:22;26.00;22.00;14.75
80555;PMS5003;69889;55.040;73.076;2024-03-25T05:11:48;26.00;23.00;16.00
80555;PMS5003;69889;55.040;73.076;2024-03-25T05:14:15;29.75;24.00;17.00
80555;PMS5003;69889;55.040;73.076;2024-03-25T05:16:41;27.25;23.00;16.00
80555;PMS5003;69889;55.040;73.076;2024-03-25T05:19:08;26.00;23.00;16.00
80555;PMS5003;69889;55.040;73.076;2024-03-25T05:21:35;23.50;22.00;15.00
80555;PMS5003;69889;55.040;73.076;2024-03-25T05:24:01;27.00;21.00;13.75
80555;PMS5003;69889;55.040;73.076;2024-03-25T05:26:27;25.75;22.00;14.00
80555;PMS5003;69889;55.040;73.076;2024-03-25T05:28:54;28.00;24.00;17.00
80555;PMS5003;69889;55.040;73.076;2024-03-25T05:31:21;30.75;25.00;16.00
80555;PMS5003;69889;55.040;73.076;2024-03-25T05:33:47;31.00;25.00;17.00
80555;PMS5003;69889;55.040;73.076;2024-03-25T05:36:13;31.00;26.00;17.00
80555;PMS5003;69889;55.040;73.076;2024-03-25T05:38:40;33.00;27.00;17.00
80555;PMS5003;69889;55.040;73.076;2024-03-25T05:41:09;28.50;24.00;16.00
80555;PMS5003;69889;55.040;73.076;2024-03-25T05:43:36;30.25;25.00;16.00
80555;PMS5003;69889;55.040;73.076;2024-03-25T05:46:02;26.50;23.75;16.00
80555;PMS5003;69889;55.040;73.076;2024-03-25T05:48:29;28.00;24.00;16.00
80555;PMS5003;69889;55.040;73.076;2024-03-25T05:51:06;33.25;28.00;19.00
80555;PMS5003;69889;55.040;73.076;2024-03-25T05:53:35;31.00;26.00;17.00
80555;PMS5003;69889;55.040;73.076;2024-03-25T05:56:03;33.75;27.50;18.00
80555;PMS5003;69889;55.040;73.076;2024-03-25T05:58:29;27.50;23.25;15.25
80555;PMS5003;69889;55.040;73.076;2024-03-25T06:00:56;30.00;24.00;14.50
80555;PMS5003;69889;55.040;73.076;2024-03-25T06:03:22;29.75;25.00;16.00
80555;PMS5003;69889;55.040;73.076;2024-03-25T06:05:48;27.25;24.00;16.00
80555;PMS5003;69889;55.040;73.076;2024-03-25T06:08:15;26.00;23.00;16.00
80555;PMS5003;69889;55.040;73.076;2024-03-25T06:10:46;26.00;22.00;16.00
80555;PMS5003;69889;55.040;73.076;2024-03-25T06:13:12;29.00;24.00;16.00
80555;PMS5003;69889;55.040;73.076;2024-03-25T06:15:39;26.50;24.00;17.00
80555;PMS5003;69889;55.040;73.076;2024-03-25T06:18:05;27.00;23.00;15.00
80555;PMS5003;69889;55.040;73.076;2024-03-25T06:20:32;27.00;23.00;15.00
80555;PMS5003;69889;55.040;73.076;2024-03-25T06:22:58;23.00;21.00;15.00
80555;PMS5003;69889;55.040;73.076;2024-03-25T06:25:25;25.75;22.50;14.75
80555;PMS5003;69889;55.040;73.076;2024-03-25T06:27:54;25.00;21.00;14.75
80555;PMS5003;69889;55.040;73.076;2024-03-25T06:30:20;25.00;21.25;15.00
80555;PMS5003;69889;55.040;73.076;2024-03-25T06:33:05;24.00;22.00;15.00
80555;PMS5003;69889;55.040;73.076;2024-03-25T06:35:50;24.50;21.00;14.00
80555;PMS5003;69889;55.040;73.076;2024-03-25T06:38:18;24.00;20.75;14.00
80555;PMS5003;69889;55.040;73.076;2024-03-25T06:40:45;19.50;18.00;12.00
80555;PMS5003;69889;55.040;73.076;2024-03-25T06:43:11;20.00;18.00;13.00
80555;PMS5003;69889;55.040;73.076;2024-03-25T06:45:38;26.00;21.00;13.00
80555;PMS5003;69889;55.040;73.076;2024-03-25T06:48:04;23.50;21.00;14.00
80555;PMS5003;69889;55.040;73.076;2024-03-25T06:50:32;23.75;21.50;13.00
80555;PMS5003;69889;55.040;73.076;2024-03-25T06:52:58;23.00;20.00;13.00
80555;PMS5003;69889;55.040;73.076;2024-03-25T06:55:25;22.50;18.75;13.00
80555;PMS5003;69889;55.040;73.076;2024-03-25T06:57:54;23.00;20.00;13.00
80555;PMS5003;69889;55.040;73.076;2024-03-25T07:00:20;27.00;22.00;14.00
80555;PMS5003;69889;55.040;73.076;2024-03-25T07:02:49;24.00;20.50;13.00
80555;PMS5003;69889;55.040;73.076;2024-03-25T07:05:15;33.75;25.00;16.00
80555;PMS5003;69889;55.040;73.076;2024-03-25T07:07:42;26.25;23.00;16.00
80555;PMS5003;69889;55.040;73.076;2024-03-25T07:10:08;25.00;21.00;14.00
80555;PMS5003;69889;55.040;73.076;2024-03-25T07:12:34;25.50;20.25;14.00
80555;PMS5003;69889;55.040;73.076;2024-03-25T07:15:01;26.00;23.00;16.00
80555;PMS5003;69889;55.040;73.076;2024-03-25T07:17:27;27.00;24.00;15.00
80555;PMS5003;69889;55.040;73.076;2024-03-25T07:19:54;23.00;19.50;12.00
80555;PMS5003;69889;55.040;73.076;2024-03-25T07:22:20;27.25;24.50;16.00
80555;PMS5003;69889;55.040;73.076;2024-03-25T07:24:46;24.50;22.00;15.00
80555;PMS5003;69889;55.040;73.076;2024-03-25T07:27:13;23.25;20.50;14.00
80555;PMS5003;69889;55.040;73.076;2024-03-25T07:29:39;23.00;20.00;13.50
80555;PMS5003;69889;55.040;73.076;2024-03-25T07:32:06;25.00;21.00;15.00
80555;PMS5003;69889;55.040;73.076;2024-03-25T07:34:34;24.00;21.00;14.00
80555;PMS5003;69889;55.040;73.076;2024-03-25T07:37:00;21.00;18.50;13.75
80555;PMS5003;69889;55.040;73.076;2024-03-25T07:39:27;23.00;20.00;14.00
80555;PMS5003;69889;55.040;73.076;2024-03-25T07:41:53;24.25;21.00;14.00
80555;PMS5003;69889;55.040;73.076;2024-03-25T07:44:19;22.75;19.00;13.00
80555;PMS5003;69889;55.040;73.076;2024-03-25T07:46:47;23.00;20.00;14.00
80555;PMS5003;69889;55.040;73.076;2024-03-25T07:49:13;22.00;20.00;13.25
80555;PMS5003;69889;55.040;73.076;2024-03-25T07:51:40;20.75;18.50;13.00
80555;PMS5003;69889;55.040;73.076;2024-03-25T07:54:06;24.75;18.00;13.00
80555;PMS5003;69889;55.040;73.076;2024-03-25T07:56:33;24.75;22.00;15.00
80555;PMS5003;69889;55.040;73.076;2024-03-25T07:59:03;25.00;21.75;15.25
80555;PMS5003;69889;55.040;73.076;2024-03-25T08:01:30;26.00;22.00;16.00
80555;PMS5003;69889;55.040;73.076;2024-03-25T08:03:56;28.00;24.00;16.00
80555;PMS5003;69889;55.040;73.076;2024-03-25T08:06:23;25.00;23.00;16.00
80555;PMS5003;69889;55.040;73.076;2024-03-25T08:08:49;26.75;22.25;15.00
80555;PMS5003;69889;55.040;73.076;2024-03-25T08:11:16;29.75;25.25;16.50
80555;PMS5003;69889;55.040;73.076;2024-03-25T08:13:42;29.00;24.00;16.00
80555;PMS5003;69889;55.040;73.076;2024-03-25T08:16:09;30.00;25.00;16.00
80555;PMS5003;69889;55.040;73.076;2024-03-25T08:18:37;27.50;23.00;15.00
80555;PMS5003;69889;55.040;73.076;2024-03-25T08:21:04;29.75;24.50;16.25
80555;PMS5003;69889;55.040;73.076;2024-03-25T08:23:30;27.25;23.00;15.00
80555;PMS5003;69889;55.040;73.076;2024-03-25T08:25:57;26.00;23.00;15.00
80555;PMS5003;69889;55.040;73.076;2024-03-25T08:28:23;28.00;24.00;16.00
80555;PMS5003;69889;55.040;73.076;2024-03-25T08:30:50;28.25;25.00;16.00
80555;PMS5003;69889;55.040;73.076;2024-03-25T08:33:16;27.75;22.75;16.00
80555;PMS5003;69889;55.040;73.076;2024-03-25T08:35:54;27.00;24.00;16.25
80555;PMS5003;69889;55.040;73.076;2024-03-25T08:38:20;29.50;24.75;16.00
80555;PMS5003;69889;55.040;73.076;2024-03-25T08:40:48;29.00;25.00;16.50
80555;PMS5003;69889;55.040;73.076;2024-03-25T08:43:14;27.00;23.00;16.00
80555;PMS5003;69889;55.040;73.076;2024-03-25T08:45:42;32.00;26.50;17.00
80555;PMS5003;69889;55.040;73.076;2024-03-25T08:48:08;27.50;24.00;17.00
80555;PMS5003;69889;55.040;73.076;2024-03-25T08:50:35;29.00;24.00;16.00
80555;PMS5003;69889;55.040;73.076;2024-03-25T08:53:01;28.00;24.00;17.00
80555;PMS5003;69889;55.040;73.076;2024-03-25T08:55:29;28.50;25.00;16.00
80555;PMS5003;69889;55.040;73.076;2024-03-25T08:57:55;28.00;24.00;16.00
80555;PMS5003;69889;55.040;73.076;2024-03-25T09:00:24;29.00;24.00;16.00
80555;PMS5003;69889;55.040;73.076;2024-03-25T09:02:51;30.00;23.00;16.00
80555;PMS5003;69889;55.040;73.076;2024-03-25T09:05:17;26.50;23.25;15.00
80555;PMS5003;69889;55.040;73.076;2024-03-25T09:07:44;25.25;22.50;16.00
80555;PMS5003;69889;55.040;73.076;2024-03-25T09:10:11;26.00;23.00;16.00
80555;PMS5003;69889;55.040;73.076;2024-03-25T09:12:56;28.75;23.50;16.00
80555;PMS5003;69889;55.040;73.076;2024-03-25T09:15:23;31.75;26.00;17.50
80555;PMS5003;69889;55.040;73.076;2024-03-25T09:17:49;28.00;24.25;17.00
80555;PMS5003;69889;55.040;73.076;2024-03-25T09:20:15;30.00;25.00;17.00
80555;PMS5003;69889;55.040;73.076;2024-03-25T09:22:43;30.25;26.00;17.00
80555;PMS5003;69889;55.040;73.076;2024-03-25T09:25:10;29.75;25.00;15.75
80555;PMS5003;69889;55.040;73.076;2024-03-25T09:27:36;29.75;25.00;16.50
80555;PMS5003;69889;55.040;73.076;2024-03-25T09:30:05;30.00;25.00;17.00
80555;PMS5003;69889;55.040;73.076;2024-03-25T09:32:32;30.75;25.25;18.00
80555;PMS5003;69889;55.040;73.076;2024-03-25T09:35:00;32.00;27.00;18.00
80555;PMS5003;69889;55.040;73.076;2024-03-25T09:37:26;34.00;28.00;19.00
80555;PMS5003;69889;55.040;73.076;2024-03-25T09:39:53;32.50;28.00;19.00
80555;PMS5003;69889;55.040;73.076;2024-03-25T09:42:23;35.00;29.00;19.00
80555;PMS5003;69889;55.040;73.076;2024-03-25T09:44:55;31.75;27.00;19.00
80555;PMS5003;69889;55.040;73.076;2024-03-25T09:47:22;30.00;26.00;17.00
80555;PMS5003;69889;55.040;73.076;2024-03-25T09:49:50;34.00;28.00;18.00
80555;PMS5003;69889;55.040;73.076;2024-03-25T09:52:18;30.00;25.75;17.00
80555;PMS5003;69889;55.040;73.076;2024-03-25T09:54:45;31.00;27.00;18.00
80555;PMS5003;69889;55.040;73.076;2024-03-25T09:57:11;39.00;32.00;21.00
80555;PMS5003;69889;55.040;73.076;2024-03-25T09:59:39;37.00;31.00;22.00
80555;PMS5003;69889;55.040;73.076;2024-03-25T10:02:05;34.00;28.00;19.25
80555;PMS5003;69889;55.040;73.076;2024-03-25T10:04:33;33.75;28.50;19.00
80555;PMS5003;69889;55.040;73.076;2024-03-25T10:06:59;32.00;26.00;17.50
80555;PMS5003;69889;55.040;73.076;2024-03-25T10:09:26;32.25;27.25;18.00
80555;PMS5003;69889;55.040;73.076;2024-03-25T10:11:53;32.50;26.50;18.00
80555;PMS5003;69889;55.040;73.076;2024-03-25T10:14:22;33.00;26.00;18.00
80555;PMS5003;69889;55.040;73.076;2024-03-25T10:16:48;32.00;27.00;18.25
80555;PMS5003;69889;55.040;73.076;2024-03-25T10:19:15;32.75;27.00;17.00
80555;PMS5003;69889;55.040;73.076;2024-03-25T10:21:42;33.50;27.25;17.50
80555;PMS5003;69889;55.040;73.076;2024-03-25T10:24:08;32.00;26.00;17.00
80555;PMS5003;69889;55.040;73.076;2024-03-25T10:26:35;28.75;25.00;17.00
80555;PMS5003;69889;55.040;73.076;2024-03-25T10:29:02;29.25;24.75;16.75
80555;PMS5003;69889;55.040;73.076;2024-03-25T10:31:29;31.00;27.00;17.00
80555;PMS5003;69889;55.040;73.076;2024-03-25T10:33:57;34.50;28.00;19.00
80555;PMS5003;69889;55.040;73.076;2024-03-25T10:36:25;32.00;25.75;18.00
80555;PMS5003;69889;55.040;73.076;2024-03-25T10:38:55;31.25;26.25;17.50
80555;PMS5003;69889;55.040;73.076;2024-03-25T10:41:22;32.00;27.00;18.00
80555;PMS5003;69889;55.040;73.076;2024-03-25T10:43:49;30.00;25.00;17.00
80555;PMS5003;69889;55.040;73.076;2024-03-25T10:46:18;30.75;25.50;15.75
80555;PMS5003;69889;55.040;73.076;2024-03-25T10:48:52;32.75;27.50;18.00
80555;PMS5003;69889;55.040;73.076;2024-03-25T10:51:22;30.00;25.50;17.00
80555;PMS5003;69889;55.040;73.076;2024-03-25T10:53:52;32.25;26.75;18.00
80555;PMS5003;69889;55.040;73.076;2024-03-25T10:56:20;33.00;27.50;18.00
80555;PMS5003;69889;55.040;73.076;2024-03-25T10:58:50;32.00;26.50;17.00
80555;PMS5003;69889;55.040;73.076;2024-03-25T11:01:17;34.00;28.00;19.00
80555;PMS5003;69889;55.040;73.076;2024-03-25T11:03:46;33.00;26.00;18.00
80555;PMS5003;69889;55.040;73.076;2024-03-25T11:06:14;33.00;27.25;18.00
80555;PMS5003;69889;55.040;73.076;2024-03-25T11:08:41;32.50;27.00;17.50
80555;PMS5003;69889;55.040;73.076;2024-03-25T11:11:07;33.50;28.00;19.00
80555;PMS5003;69889;55.040;73.076;2024-03-25T11:13:34;33.00;28.00;20.00
80555;PMS5003;69889;55.040;73.076;2024-03-25T11:16:00;33.25;28.00;19.00
80555;PMS5003;69889;55.040;73.076;2024-03-25T11:18:50;32.75;26.75;18.00
80555;PMS5003;69889;55.040;73.076;2024-03-25T11:21:23;32.75;27.50;18.00
80555;PMS5003;69889;55.040;73.076;2024-03-25T11:23:50;31.00;25.75;17.00
80555;PMS5003;69889;55.040;73.076;2024-03-25T11:28:44;32.25;25.00;17.00
80555;PMS5003;69889;55.040;73.076;2024-03-25T11:31:11;30.50;25.50;16.00
80555;PMS5003;69889;55.040;73.076;2024-03-25T11:33:41;32.75;26.75;18.00
80555;PMS5003;69889;55.040;73.076;2024-03-25T11:36:07;29.75;26.00;18.00
80555;PMS5003;69889;55.040;73.076;2024-03-25T11:38:34;31.00;25.00;16.00
80555;PMS5003;69889;55.040;73.076;2024-03-25T11:41:00;30.25;26.00;17.00
80555;PMS5003;69889;55.040;73.076;2024-03-25T11:43:27;27.00;24.00;15.00
80555;PMS5003;69889;55.040;73.076;2024-03-25T11:45:53;29.25;24.50;17.00
80555;PMS5003;69889;55.040;73.076;2024-03-25T11:48:20;32.00;27.00;17.75
80555;PMS5003;69889;55.040;73.076;2024-03-25T11:50:46;36.00;29.00;17.75
80555;PMS5003;69889;55.040;73.076;2024-03-25T11:53:17;34.00;29.00;18.00
80555;PMS5003;69889;55.040;73.076;2024-03-25T11:55:47;34.50;28.75;19.75
80555;PMS5003;69889;55.040;73.076;2024-03-25T11:58:14;36.75;30.00;19.75
80555;PMS5003;69889;55.040;73.076;2024-03-25T12:00:44;33.75;27.25;18.25
80555;PMS5003;69889;55.040;73.076;2024-03-25T12:03:13;34.00;28.00;20.00
80555;PMS5003;69889;55.040;73.076;2024-03-25T12:05:44;32.00;26.50;17.00
80555;PMS5003;69889;55.040;73.076;2024-03-25T12:08:12;35.00;28.00;19.00
80555;PMS5003;69889;55.040;73.076;2024-03-25T12:10:39;35.00;29.50;19.00
80555;PMS5003;69889;55.040;73.076;2024-03-25T12:13:25;32.00;28.00;19.00
80555;PMS5003;69889;55.040;73.076;2024-03-25T12:15:52;35.00;29.00;19.00
80555;PMS5003;69889;55.040;73.076;2024-03-25T12:18:19;34.50;28.75;18.50
80555;PMS5003;69889;55.040;73.076;2024-03-25T12:20:46;34.00;29.00;20.00
80555;PMS5003;69889;55.040;73.076;2024-03-25T12:23:12;31.50;26.00;18.25
80555;PMS5003;69889;55.040;73.076;2024-03-25T12:25:48;29.75;25.00;17.00
80555;PMS5003;69889;55.040;73.076;2024-03-25T12:28:16;31.00;25.75;16.50
80555;PMS5003;69889;55.040;73.076;2024-03-25T12:30:52;30.00;25.50;17.00
80555;PMS5003;69889;55.040;73.076;2024-03-25T12:33:18;31.25;26.00;17.00
80555;PMS5003;69889;55.040;73.076;2024-03-25T12:35:45;28.75;24.00;16.50
80555;PMS5003;69889;55.040;73.076;2024-03-25T12:41:25;30.75;26.00;17.00
80555;PMS5003;69889;55.040;73.076;2024-03-25T12:43:52;30.00;25.00;18.00
80555;PMS5003;69889;55.040;73.076;2024-03-25T12:46:18;30.75;25.00;17.00
80555;PMS5003;69889;55.040;73.076;2024-03-25T12:48:45;31.00;26.00;18.00
80555;PMS5003;69889;55.040;73.076;2024-03-25T12:51:15;34.00;28.00;18.00
80555;PMS5003;69889;55.040;73.076;2024-03-25T12:53:42;34.00;27.50;17.00
80555;PMS5003;69889;55.040;73.076;2024-03-25T12:56:08;31.00;27.00;17.50
80555;PMS5003;69889;55.040;73.076;2024-03-25T12:58:35;34.00;28.25;19.00
80555;PMS5003;69889;55.040;73.076;2024-03-25T13:01:01;31.50;26.75;18.00
80555;PMS5003;69889;55.040;73.076;2024-03-25T13:03:47;35.00;30.00;19.00
80555;PMS5003;69889;55.040;73.076;2024-03-25T13:06:13;35.00;28.00;18.00
80555;PMS5003;69889;55.040;73.076;2024-03-25T13:08:54;35.00;29.00;18.00
80555;PMS5003;69889;55.040;73.076;2024-03-25T13:11:20;34.25;27.00;19.00
80555;PMS5003;69889;55.040;73.076;2024-03-25T13:14:03;33.00;27.00;18.00
80555;PMS5003;69889;55.040;73.076;2024-03-25T13:16:29;34.50;27.75;18.00
80555;PMS5003;69889;55.040;73.076;2024-03-25T13:19:09;38.00;31.00;19.00
80555;PMS5003;69889;55.040;73.076;2024-03-25T13:21:36;34.25;28.00;19.00
80555;PMS5003;69889;55.040;73.076;2024-03-25T13:24:15;35.00;29.25;19.00
80555;PMS5003;69889;55.040;73.076;2024-03-25T13:26:42;35.00;30.00;20.00
80555;PMS5003;69889;55.040;73.076;2024-03-25T13:29:08;36.00;29.25;20.00
80555;PMS5003;69889;55.040;73.076;2024-03-25T13:31:37;36.00;29.75;19.75
80555;PMS5003;69889;55.040;73.076;2024-03-25T13:34:03;39.00;31.50;20.00
80555;PMS5003;69889;55.040;73.076;2024-03-25T13:36:30;36.75;29.75;20.00
80555;PMS5003;69889;55.040;73.076;2024-03-25T13:38:57;35.50;29.00;19.00
80555;PMS5003;69889;55.040;73.076;2024-03-25T13:41:23;37.25;29.00;20.00